Time;durP1;ratioP1;P1;durP2;ratioP2;P2;SDS_P1;SDS_P2;PMS_P1;PMS_P2;Temp;Humidity;BMP_temperature;BMP_pressure;BME280_temperature;BME280_humidity;BME280_pressure;Samples;Min_cycle;Max_cycle;Signal;HPM_P1;HPM_P2
2023/10/29 00:01:59;;;;;;;2.58;0.60;;;17.50;71.50;;;;;;2489592;55;21034;-86
2023/10/29 00:04:25;;;;;;;1.10;0.40;;;17.50;71.50;;;;;;2261776;55;20958;-86
2023/10/29 00:06:52;;;;;;;4.00;0.60;;;17.50;71.50;;;;;;2260986;55;20903;-87
2023/10/29 00:09:18;;;;;;;1.15;0.40;;;17.60;71.60;;;;;;2490029;54;20927;-86
2023/10/29 00:11:44;;;;;;;1.52;0.50;;;17.60;71.60;;;;;;2261919;55;20927;-86
2023/10/29 00:14:11;;;;;;;0.80;0.40;;;17.60;71.40;;;;;;2260509;55;20974;-87
2023/10/29 00:16:37;;;;;;;1.52;0.57;;;17.60;71.50;;;;;;2489082;54;20930;-85
2023/10/29 00:19:03;;;;;;;0.60;0.30;;;17.60;71.50;;;;;;2488551;55;21005;-88
2023/10/29 00:21:34;;;;;;;1.02;0.40;;;17.70;71.50;;;;;;2261436;55;20943;-86
2023/10/29 00:24:00;;;;;;;0.82;0.40;;;17.70;71.50;;;;;;2489363;55;20967;-87
2023/10/29 00:26:26;;;;;;;1.25;0.40;;;17.70;71.50;;;;;;2261205;55;20935;-86
2023/10/29 00:28:53;;;;;;;1.52;0.43;;;17.70;71.40;;;;;;2260515;55;21113;-87
2023/10/29 00:31:20;;;;;;;2.25;0.60;;;17.80;71.50;;;;;;2489183;54;20907;-86
2023/10/29 00:33:46;;;;;;;3.95;0.52;;;17.80;71.50;;;;;;2489725;55;20966;-86
2023/10/29 00:36:12;;;;;;;1.85;0.60;;;17.80;71.50;;;;;;2487159;54;21018;-85
2023/10/29 00:38:38;;;;;;;1.83;0.50;;;17.80;71.50;;;;;;2257624;56;20995;-86
2023/10/29 00:41:05;;;;;;;1.30;0.43;;;17.80;71.50;;;;;;2485607;55;20938;-87
2023/10/29 00:43:40;;;;;;;0.80;0.32;;;17.80;71.40;;;;;;2260141;55;20926;-85
2023/10/29 00:46:06;;;;;;;1.92;0.55;;;17.90;71.40;;;;;;2484005;54;20939;-85
2023/10/29 00:48:33;;;;;;;1.58;0.50;;;17.90;71.50;;;;;;2487369;54;21736;-85
2023/10/29 00:50:59;;;;;;;2.00;0.35;;;17.90;71.40;;;;;;2483594;55;21525;-87
2023/10/29 00:53:25;;;;;;;1.27;0.40;;;17.90;71.30;;;;;;2484259;55;21629;-85
2023/10/29 00:55:52;;;;;;;0.85;0.30;;;17.90;71.20;;;;;;2258950;55;20974;-86
2023/10/29 00:58:19;;;;;;;1.23;0.60;;;18.00;71.40;;;;;;2486235;55;20950;-86
2023/10/29 01:00:45;;;;;;;2.60;0.65;;;18.00;71.30;;;;;;2259695;55;20994;-86
2023/10/29 01:03:12;;;;;;;1.58;0.40;;;18.00;71.20;;;;;;2487213;54;20931;-86
2023/10/29 01:05:38;;;;;;;1.80;0.52;;;18.00;71.20;;;;;;2487329;54;20974;-86
2023/10/29 01:08:07;;;;;;;1.02;0.50;;;18.00;71.20;;;;;;2481454;55;20898;-85
2023/10/29 01:10:33;;;;;;;1.02;0.28;;;18.00;71.30;;;;;;2259420;55;21070;-85
2023/10/29 01:13:00;;;;;;;0.93;0.37;;;18.10;71.40;;;;;;2486399;54;20919;-85
2023/10/29 01:15:26;;;;;;;2.22;0.47;;;18.10;71.20;;;;;;2486174;54;20974;-86
2023/10/29 01:17:52;;;;;;;3.08;1.33;;;18.10;71.10;;;;;;2485493;54;20927;-85
2023/10/29 01:20:19;;;;;;;3.00;0.77;;;18.10;71.10;;;;;;2485145;55;22266;-86
2023/10/29 01:22:45;;;;;;;3.35;1.00;;;18.10;71.10;;;;;;2258377;55;20998;-85
2023/10/29 01:25:12;;;;;;;3.62;1.25;;;18.10;71.00;;;;;;2257441;55;21038;-86
2023/10/29 01:27:38;;;;;;;4.07;1.20;;;18.10;71.00;;;;;;2485295;54;20954;-85
2023/10/29 01:30:05;;;;;;;6.30;1.33;;;18.10;71.00;;;;;;2256937;55;21829;-85
2023/10/29 01:32:32;;;;;;;3.50;1.27;;;18.20;71.00;;;;;;2482648;55;21034;-84
2023/10/29 01:34:58;;;;;;;2.08;0.70;;;18.20;70.90;;;;;;2258964;55;21198;-84
2023/10/29 01:37:25;;;;;;;2.60;0.90;;;18.20;71.00;;;;;;2258265;55;20907;-85
2023/10/29 01:39:51;;;;;;;1.83;0.62;;;18.20;70.80;;;;;;2487174;55;21794;-85
2023/10/29 01:42:17;;;;;;;3.65;0.60;;;18.20;70.70;;;;;;2258394;55;21000;-85
2023/10/29 01:44:44;;;;;;;1.40;0.50;;;18.20;70.70;;;;;;2238686;55;1250756;-87
2023/10/29 01:47:11;;;;;;;1.42;0.50;;;18.20;70.70;;;;;;2484939;54;20902;-86
2023/10/29 01:49:37;;;;;;;1.95;0.60;;;18.20;70.70;;;;;;2259059;55;20930;-85
2023/10/29 01:52:04;;;;;;;2.35;0.80;;;18.20;70.60;;;;;;2258150;55;21046;-85
2023/10/29 01:54:30;;;;;;;1.37;0.43;;;18.20;70.50;;;;;;2486673;54;21782;-85
2023/10/29 01:56:57;;;;;;;1.77;0.60;;;18.20;70.60;;;;;;2486341;55;20906;-86
2023/10/29 01:59:23;;;;;;;1.75;0.50;;;18.30;70.70;;;;;;2486631;55;21313;-86
2023/10/29 02:01:49;;;;;;;2.80;0.75;;;18.30;70.70;;;;;;2259862;55;21046;-88
2023/10/29 02:04:16;;;;;;;1.98;0.68;;;18.30;70.70;;;;;;2470701;55;20922;-84
2023/10/29 02:06:42;;;;;;;1.58;0.60;;;18.30;70.60;;;;;;2485298;54;21538;-85
2023/10/29 02:09:09;;;;;;;1.62;0.70;;;18.30;70.50;;;;;;2258560;55;20959;-87
2023/10/29 02:11:39;;;;;;;3.47;1.15;;;18.30;70.50;;;;;;2256812;55;20946;-88
2023/10/29 02:14:06;;;;;;;2.05;0.47;;;18.30;70.20;;;;;;2485054;55;20970;-86
2023/10/29 02:16:32;;;;;;;1.67;0.60;;;18.30;70.60;;;;;;2484273;54;20919;-85
2023/10/29 02:18:58;;;;;;;1.20;0.40;;;18.40;70.60;;;;;;2485851;55;20926;-87
2023/10/29 02:21:24;;;;;;;1.20;0.40;;;18.30;70.40;;;;;;2259095;55;20970;-85
2023/10/29 02:23:52;;;;;;;2.33;0.60;;;18.30;70.40;;;;;;2258967;55;20966;-84
2023/10/29 02:26:18;;;;;;;3.30;0.40;;;18.40;70.60;;;;;;2258460;55;21474;-85
2023/10/29 02:28:45;;;;;;;2.03;0.75;;;18.30;70.50;;;;;;2486846;54;20942;-86
2023/10/29 02:31:17;;;;;;;1.50;0.47;;;18.40;70.60;;;;;;2486775;54;20899;-86
2023/10/29 02:33:44;;;;;;;1.77;0.40;;;18.40;69.80;;;;;;2487312;55;20915;-85
2023/10/29 02:36:10;;;;;;;2.08;0.55;;;18.40;70.40;;;;;;2487047;54;21992;-85
2023/10/29 02:38:40;;;;;;;0.70;0.30;;;18.40;70.40;;;;;;2486240;55;21073;-86
2023/10/29 02:41:06;;;;;;;1.25;0.40;;;18.50;70.60;;;;;;2259981;55;20923;-86
2023/10/29 02:43:33;;;;;;;1.40;0.40;;;18.40;70.30;;;;;;2258293;55;20969;-85
2023/10/29 02:46:00;;;;;;;1.42;0.40;;;18.40;70.40;;;;;;2259781;55;20926;-85
2023/10/29 02:48:26;;;;;;;1.58;0.40;;;18.40;70.40;;;;;;2487609;55;21089;-87
2023/10/29 02:50:53;;;;;;;0.77;0.30;;;18.40;70.30;;;;;;2260314;55;20927;-85
2023/10/29 02:53:20;;;;;;;2.25;0.30;;;18.40;70.30;;;;;;2260322;55;21699;-84
2023/10/29 02:55:46;;;;;;;1.83;0.50;;;18.50;70.30;;;;;;2259284;55;20923;-85
2023/10/29 02:58:12;;;;;;;0.65;0.28;;;18.40;70.20;;;;;;2258260;55;20986;-85
2023/10/29 03:00:39;;;;;;;1.33;0.50;;;18.40;70.30;;;;;;2488555;54;21056;-85
2023/10/29 03:03:06;;;;;;;0.55;0.30;;;18.40;70.30;;;;;;2260211;55;20976;-85
2023/10/29 03:05:33;;;;;;;1.17;0.20;;;18.30;70.10;;;;;;2487459;54;21113;-86
2023/10/29 03:08:03;;;;;;;2.37;0.40;;;18.40;70.10;;;;;;2487773;55;21170;-86
2023/10/29 03:10:32;;;;;;;1.02;0.40;;;18.40;70.10;;;;;;2490037;55;20962;-86
2023/10/29 03:12:59;;;;;;;1.20;0.40;;;18.40;69.90;;;;;;2262171;55;21585;-88
2023/10/29 03:15:26;;;;;;;1.40;0.47;;;18.40;70.10;;;;;;2260392;55;21097;-85
2023/10/29 03:17:52;;;;;;;1.80;0.60;;;18.40;70.00;;;;;;2489617;55;20899;-85
2023/10/29 03:20:19;;;;;;;1.00;0.37;;;18.40;70.10;;;;;;2488679;54;21506;-85
2023/10/29 03:22:45;;;;;;;3.00;0.47;;;18.40;70.20;;;;;;2488377;54;20959;-85
2023/10/29 03:25:11;;;;;;;0.70;0.30;;;18.40;70.20;;;;;;2261757;55;21002;-87
2023/10/29 03:27:38;;;;;;;0.95;0.37;;;18.40;70.20;;;;;;2487806;54;20914;-86
2023/10/29 03:30:06;;;;;;;0.82;0.30;;;18.30;70.00;;;;;;2489199;55;20939;-85
2023/10/29 03:32:32;;;;;;;0.80;0.30;;;18.30;69.90;;;;;;2483803;55;20929;-85
2023/10/29 03:34:58;;;;;;;0.85;0.35;;;18.30;70.00;;;;;;2261290;55;21016;-86
2023/10/29 03:37:25;;;;;;;0.55;0.30;;;18.30;69.90;;;;;;2488579;55;21026;-85
2023/10/29 03:39:51;;;;;;;1.62;0.30;;;18.30;69.90;;;;;;2489841;55;20942;-84
2023/10/29 03:42:17;;;;;;;1.17;0.40;;;18.30;69.80;;;;;;2490376;54;22315;-86
2023/10/29 03:44:43;;;;;;;1.08;0.40;;;18.30;69.80;;;;;;2261948;55;21026;-86
2023/10/29 03:47:10;;;;;;;0.90;0.32;;;18.30;69.80;;;;;;2261009;55;20891;-86
2023/10/29 03:49:36;;;;;;;1.02;0.40;;;18.30;69.80;;;;;;2260640;55;21951;-85
2023/10/29 03:52:02;;;;;;;2.97;0.47;;;18.30;69.80;;;;;;2488698;55;21034;-85
2023/10/29 03:54:29;;;;;;;1.35;0.50;;;18.20;69.60;;;;;;2489171;54;20918;-86
2023/10/29 03:56:55;;;;;;;0.75;0.30;;;18.20;69.60;;;;;;2261047;55;20986;-86
2023/10/29 03:59:21;;;;;;;2.47;0.40;;;18.30;69.70;;;;;;2489277;54;21247;-86
2023/10/29 04:01:48;;;;;;;0.73;0.40;;;18.20;69.60;;;;;;2260924;55;21238;-87
2023/10/29 04:04:15;;;;;;;0.65;0.35;;;18.20;69.60;;;;;;2261342;56;20994;-86
2023/10/29 04:06:42;;;;;;;0.98;0.32;;;18.20;69.60;;;;;;2489010;54;21407;-86
2023/10/29 04:09:09;;;;;;;1.12;0.30;;;18.20;69.70;;;;;;2260800;55;20938;-86
2023/10/29 04:11:36;;;;;;;1.33;0.40;;;18.20;69.70;;;;;;2488194;55;21844;-86
2023/10/29 04:14:02;;;;;;;1.20;0.60;;;18.20;69.70;;;;;;2488593;54;21041;-85
2023/10/29 04:16:29;;;;;;;0.80;0.30;;;18.20;69.70;;;;;;2487177;55;20915;-86
2023/10/29 04:18:55;;;;;;;0.75;0.25;;;18.20;70.50;;;;;;2260110;55;20922;-84
2023/10/29 04:21:21;;;;;;;0.82;0.37;;;18.20;69.70;;;;;;2487608;55;20982;-86
2023/10/29 04:23:48;;;;;;;1.60;0.40;;;18.20;69.70;;;;;;2259402;55;22274;-86
2023/10/29 04:26:14;;;;;;;0.90;0.40;;;18.20;69.70;;;;;;2259685;55;21070;-86
2023/10/29 04:28:40;;;;;;;1.65;0.40;;;18.20;69.70;;;;;;2258670;56;20950;-87
2023/10/29 04:31:07;;;;;;;1.23;0.32;;;18.10;69.60;;;;;;2259545;55;20950;-86
2023/10/29 04:33:33;;;;;;;1.52;0.50;;;18.10;69.60;;;;;;2259487;55;20942;-85
2023/10/29 04:35:59;;;;;;;2.20;0.40;;;18.10;69.60;;;;;;2259986;55;22028;-85
2023/10/29 04:38:26;;;;;;;1.90;0.40;;;18.10;69.60;;;;;;2259659;55;20998;-85
2023/10/29 04:40:52;;;;;;;1.33;0.50;;;18.10;69.70;;;;;;2259337;55;21059;-84
2023/10/29 04:43:18;;;;;;;1.45;0.50;;;18.10;69.60;;;;;;2487785;55;21010;-85
2023/10/29 04:45:44;;;;;;;2.17;0.32;;;18.10;69.70;;;;;;2258584;55;21684;-87
2023/10/29 04:48:11;;;;;;;0.52;0.30;;;18.10;69.70;;;;;;2488072;54;21082;-86
2023/10/29 04:50:38;;;;;;;0.73;0.30;;;18.10;69.70;;;;;;2259294;55;21007;-85
2023/10/29 04:53:04;;;;;;;0.80;0.40;;;18.10;69.80;;;;;;2259754;55;21856;-85
2023/10/29 04:55:31;;;;;;;0.70;0.30;;;18.10;69.70;;;;;;2259457;55;21308;-85
2023/10/29 04:57:57;;;;;;;0.95;0.40;;;18.10;69.80;;;;;;2487660;55;20966;-84
2023/10/29 05:00:24;;;;;;;0.90;0.40;;;18.10;69.90;;;;;;2487784;55;21002;-85
2023/10/29 05:02:50;;;;;;;1.33;0.50;;;18.10;69.80;;;;;;2259544;56;21010;-85
2023/10/29 05:05:17;;;;;;;2.03;0.45;;;18.10;69.90;;;;;;2259686;55;20958;-86
2023/10/29 05:07:44;;;;;;;1.85;0.47;;;18.10;69.90;;;;;;2486526;55;21017;-86
2023/10/29 05:10:13;;;;;;;1.10;0.40;;;18.10;70.10;;;;;;2487600;55;20967;-85
2023/10/29 05:12:39;;;;;;;1.20;0.40;;;18.10;70.00;;;;;;2259419;56;20978;-85
2023/10/29 05:15:06;;;;;;;1.05;0.40;;;18.10;70.00;;;;;;2488405;54;20982;-85
2023/10/29 05:17:34;;;;;;;0.98;0.35;;;18.10;70.00;;;;;;2487821;55;20978;-85
2023/10/29 05:20:01;;;;;;;0.90;0.30;;;18.20;70.10;;;;;;2487617;55;21049;-85
2023/10/29 05:22:27;;;;;;;0.80;0.30;;;18.30;70.20;;;;;;2487498;55;21076;-85
2023/10/29 05:24:53;;;;;;;1.02;0.50;;;18.20;70.10;;;;;;2487865;54;21026;-86
2023/10/29 05:27:20;;;;;;;1.02;0.40;;;18.20;70.30;;;;;;2259237;55;21305;-86
2023/10/29 05:29:46;;;;;;;0.95;0.40;;;18.20;70.30;;;;;;2487456;55;21053;-86
2023/10/29 05:32:13;;;;;;;1.30;0.40;;;18.20;70.10;;;;;;2259514;55;21022;-86
2023/10/29 05:34:39;;;;;;;1.35;0.50;;;18.20;70.20;;;;;;2259200;55;20962;-85
2023/10/29 05:37:05;;;;;;;3.95;0.60;;;18.20;70.00;;;;;;2488094;54;20918;-87
2023/10/29 05:39:32;;;;;;;2.12;0.50;;;18.30;70.00;;;;;;2260025;55;21037;-87
2023/10/29 05:41:58;;;;;;;1.30;0.60;;;18.30;69.90;;;;;;2487813;55;21006;-87
2023/10/29 05:44:25;;;;;;;2.03;0.52;;;18.20;69.70;;;;;;2259419;55;21578;-87
2023/10/29 05:46:51;;;;;;;2.83;1.17;;;18.20;69.70;;;;;;2258205;55;21830;-88
2023/10/29 05:49:18;;;;;;;1.87;0.82;;;18.20;69.90;;;;;;2258493;55;21002;-86
2023/10/29 05:51:44;;;;;;;1.90;0.98;;;18.20;69.80;;;;;;2486664;54;21014;-86
2023/10/29 05:54:10;;;;;;;1.87;0.80;;;18.00;69.60;;;;;;2259584;55;20959;-88
2023/10/29 05:56:37;;;;;;;2.72;0.90;;;18.20;70.00;;;;;;2487261;54;20918;-87
2023/10/29 05:59:04;;;;;;;2.03;0.80;;;18.10;69.90;;;;;;2487778;55;20990;-86
2023/10/29 06:01:30;;;;;;;2.00;0.90;;;18.10;69.80;;;;;;2488004;55;21010;-86
2023/10/29 06:03:56;;;;;;;2.85;1.20;;;18.10;69.60;;;;;;2487196;55;21442;-88
2023/10/29 06:06:23;;;;;;;2.28;0.85;;;18.10;69.60;;;;;;2259319;56;21818;-85
2023/10/29 06:08:49;;;;;;;2.17;0.80;;;18.10;69.60;;;;;;2258712;55;20970;-88
2023/10/29 06:11:15;;;;;;;2.25;0.90;;;18.00;69.60;;;;;;2259017;55;20978;-86
2023/10/29 06:13:44;;;;;;;1.65;0.70;;;18.00;69.60;;;;;;2259248;55;20962;-86
2023/10/29 06:16:10;;;;;;;2.00;0.90;;;18.00;69.60;;;;;;2487974;55;21593;-87
2023/10/29 06:18:36;;;;;;;1.95;0.70;;;18.00;69.50;;;;;;2258605;55;21096;-86
2023/10/29 06:21:03;;;;;;;2.03;0.73;;;17.90;69.50;;;;;;2488096;55;20993;-84
2023/10/29 06:23:29;;;;;;;1.58;0.60;;;17.90;69.60;;;;;;2483047;55;20964;-87
2023/10/29 06:25:55;;;;;;;2.37;0.85;;;17.90;69.70;;;;;;2259149;55;20959;-87
2023/10/29 06:28:22;;;;;;;1.83;0.68;;;17.90;69.80;;;;;;2259899;55;21220;-85
2023/10/29 06:30:48;;;;;;;1.52;0.55;;;17.80;69.80;;;;;;2258750;55;20962;-85
2023/10/29 06:33:14;;;;;;;1.70;0.60;;;17.80;69.80;;;;;;2259524;55;20985;-86
2023/10/29 06:35:41;;;;;;;1.67;0.70;;;17.80;69.90;;;;;;2259013;55;21046;-85
2023/10/29 06:38:07;;;;;;;2.67;0.80;;;17.80;70.00;;;;;;2258857;55;20985;-86
2023/10/29 06:40:33;;;;;;;3.03;0.80;;;17.80;70.10;;;;;;2488368;54;21471;-85
2023/10/29 06:43:00;;;;;;;1.98;0.98;;;17.70;70.00;;;;;;2259139;55;20942;-84
2023/10/29 06:45:26;;;;;;;3.10;1.00;;;17.70;70.10;;;;;;2488031;54;21026;-86
2023/10/29 06:47:52;;;;;;;2.00;0.80;;;17.70;70.10;;;;;;2486692;54;21803;-86
2023/10/29 06:50:18;;;;;;;2.72;0.60;;;17.70;70.10;;;;;;2259834;55;21540;-86
2023/10/29 06:52:45;;;;;;;2.20;0.80;;;17.70;70.20;;;;;;2259366;55;20976;-87
2023/10/29 06:55:12;;;;;;;2.97;0.90;;;17.60;70.10;;;;;;2259271;55;21032;-84
2023/10/29 06:57:38;;;;;;;2.80;0.73;;;17.60;70.10;;;;;;2258701;55;20950;-85
2023/10/29 07:00:07;;;;;;;2.72;0.90;;;17.60;70.20;;;;;;2488126;55;21973;-86
2023/10/29 07:02:34;;;;;;;1.95;0.82;;;17.60;70.20;;;;;;2260042;55;20960;-86
2023/10/29 07:05:00;;;;;;;2.83;0.80;;;17.60;70.50;;;;;;2259443;55;20978;-85
2023/10/29 07:07:28;;;;;;;2.28;0.82;;;17.60;70.60;;;;;;2259406;55;21330;-86
2023/10/29 07:09:55;;;;;;;1.98;0.80;;;17.50;70.40;;;;;;2258778;55;20978;-86
2023/10/29 07:12:22;;;;;;;3.20;1.20;;;17.50;70.50;;;;;;2259657;55;21138;-86
2023/10/29 07:14:49;;;;;;;3.20;1.35;;;17.50;70.50;;;;;;2259491;55;21667;-88
2023/10/29 07:17:15;;;;;;;3.08;1.30;;;17.50;70.40;;;;;;2487681;55;21044;-85
2023/10/29 07:19:41;;;;;;;2.70;1.00;;;17.50;70.50;;;;;;2487792;55;21562;-87
2023/10/29 07:22:08;;;;;;;4.15;1.05;;;17.50;71.30;;;;;;2488350;55;21006;-86
2023/10/29 07:24:35;;;;;;;3.70;1.10;;;17.50;70.70;;;;;;2488396;54;22106;-85
2023/10/29 07:27:03;;;;;;;2.30;1.00;;;17.50;70.80;;;;;;2259163;55;21463;-87
2023/10/29 07:29:29;;;;;;;1.98;0.93;;;17.50;70.90;;;;;;2487855;54;21711;-86
2023/10/29 07:31:56;;;;;;;2.50;1.20;;;17.50;70.90;;;;;;2487734;54;21821;-86
2023/10/29 07:34:22;;;;;;;3.55;1.42;;;17.50;70.90;;;;;;2458263;55;21825;-86
2023/10/29 07:36:49;;;;;;;4.47;1.67;;;17.50;71.00;;;;;;2259316;55;21502;-87
2023/10/29 07:39:15;;;;;;;4.40;1.58;;;17.50;71.10;;;;;;2487520;55;21116;-86
2023/10/29 07:41:41;;;;;;;4.37;1.98;;;17.50;71.20;;;;;;2488324;55;20985;-88
2023/10/29 07:44:08;;;;;;;4.20;1.65;;;17.50;71.20;;;;;;2487711;55;20930;-85
2023/10/29 07:46:34;;;;;;;3.55;1.48;;;17.50;71.30;;;;;;2487420;54;21053;-89
2023/10/29 07:49:01;;;;;;;7.95;4.68;;;17.50;71.40;;;;;;2259547;55;20965;-85
2023/10/29 07:51:28;;;;;;;10.45;5.75;;;17.50;71.50;;;;;;2488080;54;21053;-86
2023/10/29 07:53:55;;;;;;;8.85;5.12;;;17.50;71.50;;;;;;2487309;55;20970;-85
2023/10/29 07:56:21;;;;;;;7.65;3.75;;;17.50;71.60;;;;;;2260212;55;22102;-87
2023/10/29 07:58:48;;;;;;;5.22;2.78;;;17.50;71.80;;;;;;2259466;56;21699;-88
2023/10/29 08:01:15;;;;;;;4.20;2.08;;;17.50;71.90;;;;;;2487082;55;20935;-87
2023/10/29 08:03:41;;;;;;;4.25;1.85;;;17.50;71.90;;;;;;2260514;55;21034;-86
2023/10/29 08:06:08;;;;;;;2.75;1.25;;;17.50;72.00;;;;;;2487687;54;21019;-87
2023/10/29 08:08:34;;;;;;;3.00;1.30;;;17.50;72.10;;;;;;2260058;55;20980;-87
2023/10/29 08:11:00;;;;;;;3.58;1.42;;;17.50;72.10;;;;;;2258162;55;20934;-86
2023/10/29 08:13:26;;;;;;;2.47;1.25;;;17.60;72.20;;;;;;2488708;54;20954;-86
2023/10/29 08:15:53;;;;;;;3.47;1.15;;;17.60;72.30;;;;;;2488080;54;21940;-87
2023/10/29 08:18:19;;;;;;;3.20;1.30;;;17.60;72.40;;;;;;2259787;55;20962;-86
2023/10/29 08:20:45;;;;;;;3.10;1.27;;;17.60;72.40;;;;;;2488864;55;21173;-88
2023/10/29 08:23:12;;;;;;;2.67;1.10;;;17.60;72.50;;;;;;2488481;54;20943;-86
2023/10/29 08:25:38;;;;;;;2.22;0.90;;;17.70;72.60;;;;;;2488332;54;21057;-88
2023/10/29 08:28:07;;;;;;;2.40;0.75;;;17.70;72.70;;;;;;2488394;54;21235;-86
2023/10/29 08:30:33;;;;;;;1.65;0.55;;;17.70;72.60;;;;;;2488076;54;20966;-85
2023/10/29 08:32:59;;;;;;;2.10;0.70;;;17.70;72.70;;;;;;2260189;55;21051;-86
2023/10/29 08:35:26;;;;;;;1.80;0.75;;;17.70;72.80;;;;;;2488362;54;21752;-86
2023/10/29 08:37:52;;;;;;;2.30;0.80;;;17.70;72.70;;;;;;2487324;55;21046;-87
2023/10/29 08:40:18;;;;;;;2.70;0.90;;;17.80;72.80;;;;;;2487870;55;22056;-86
2023/10/29 08:42:45;;;;;;;1.77;0.65;;;17.80;72.90;;;;;;2260310;55;22454;-87
2023/10/29 08:45:12;;;;;;;1.87;0.60;;;17.90;72.80;;;;;;2259782;55;21031;-87
2023/10/29 08:47:38;;;;;;;0.82;0.47;;;17.80;72.70;;;;;;2488044;54;20970;-85
2023/10/29 08:50:11;;;;;;;0.80;0.40;;;17.90;72.80;;;;;;2488356;55;20969;-86
2023/10/29 08:52:37;;;;;;;2.53;0.65;;;17.90;72.60;;;;;;2488324;54;20938;-85
2023/10/29 08:55:03;;;;;;;1.25;0.50;;;17.90;72.80;;;;;;2259688;55;21625;-86
2023/10/29 08:57:30;;;;;;;1.70;0.70;;;18.00;72.90;;;;;;2487945;54;20970;-85
2023/10/29 08:59:56;;;;;;;3.58;0.90;;;18.00;72.90;;;;;;2487972;54;21057;-86
2023/10/29 09:02:23;;;;;;;1.42;0.60;;;18.10;73.00;;;;;;2488334;55;21083;-86
2023/10/29 09:04:56;;;;;;;1.42;0.50;;;18.10;72.90;;;;;;2488743;54;20986;-86
2023/10/29 09:07:24;;;;;;;0.98;0.52;;;18.10;72.90;;;;;;2487794;54;20926;-86
2023/10/29 09:09:50;;;;;;;1.40;0.50;;;18.20;72.90;;;;;;2260997;55;21021;-86
2023/10/29 09:12:16;;;;;;;1.02;0.43;;;18.20;72.90;;;;;;2487708;55;20978;-85
2023/10/29 09:14:43;;;;;;;2.78;0.80;;;18.20;72.90;;;;;;2260514;56;21485;-86
2023/10/29 09:17:10;;;;;;;1.08;0.50;;;18.30;73.00;;;;;;2484421;55;20958;-86
2023/10/29 09:19:36;;;;;;;0.88;0.40;;;18.30;73.00;;;;;;2259678;55;22461;-86
2023/10/29 09:22:02;;;;;;;1.52;0.50;;;18.40;73.10;;;;;;2259447;55;20950;-87
2023/10/29 09:24:28;;;;;;;2.47;0.93;;;18.40;73.00;;;;;;2487948;55;21498;-86
2023/10/29 09:26:56;;;;;;;1.52;0.60;;;18.40;73.00;;;;;;2487564;54;20955;-85
2023/10/29 09:29:23;;;;;;;1.62;0.50;;;18.50;73.00;;;;;;2487114;55;21049;-86
2023/10/29 09:31:53;;;;;;;2.72;0.70;;;18.50;72.90;;;;;;2260265;55;21331;-86
2023/10/29 09:34:19;;;;;;;3.30;0.70;;;18.50;72.80;;;;;;2487848;55;20946;-87
2023/10/29 09:36:46;;;;;;;3.00;1.17;;;18.60;72.90;;;;;;2487770;54;20962;-86
2023/10/29 09:39:12;;;;;;;3.58;1.55;;;18.60;72.90;;;;;;2487486;55;21820;-86
2023/10/29 09:41:38;;;;;;;4.55;1.90;;;18.60;72.90;;;;;;2259427;55;22194;-86
2023/10/29 09:44:06;;;;;;;4.43;1.45;;;18.70;73.00;;;;;;2258942;55;21009;-87
2023/10/29 09:46:32;;;;;;;2.75;1.00;;;18.70;72.80;;;;;;2259449;56;21800;-86
2023/10/29 09:49:00;;;;;;;1.98;0.75;;;18.70;72.90;;;;;;2259302;55;20973;-85
2023/10/29 09:51:26;;;;;;;3.08;0.90;;;18.80;73.00;;;;;;2487707;54;21014;-86
2023/10/29 09:53:52;;;;;;;2.12;0.85;;;18.80;72.90;;;;;;2488593;55;20966;-86
2023/10/29 09:56:19;;;;;;;1.12;0.60;;;18.80;72.80;;;;;;2487302;54;21907;-89
2023/10/29 09:58:45;;;;;;;1.37;0.60;;;18.90;72.90;;;;;;2260127;55;21049;-87
2023/10/29 10:01:11;;;;;;;2.12;0.60;;;18.90;72.80;;;;;;2487830;55;21051;-88
2023/10/29 10:03:37;;;;;;;1.50;0.40;;;18.90;72.70;;;;;;2260189;55;21510;-86
2023/10/29 10:06:05;;;;;;;1.77;0.52;;;19.00;72.70;;;;;;2259897;55;20957;-85
2023/10/29 10:08:33;;;;;;;0.90;0.30;;;19.00;72.60;;;;;;2259308;55;21240;-85
2023/10/29 10:10:59;;;;;;;1.60;0.40;;;19.00;72.50;;;;;;2260031;55;21089;-85
2023/10/29 10:13:41;;;;;;;3.17;0.52;;;19.00;72.50;;;;;;2260594;55;21420;-87
2023/10/29 10:16:11;;;;;;;1.30;0.47;;;19.10;71.30;;;;;;2489087;54;20966;-88
2023/10/29 10:18:57;;;;;;;1.10;0.43;;;19.10;72.60;;;;;;2259793;55;21328;-86
2023/10/29 10:21:40;;;;;;;1.40;0.40;;;19.20;71.30;;;;;;2487209;55;21000;-88
2023/10/29 10:24:07;;;;;;;1.92;0.60;;;19.20;71.30;;;;;;2260389;55;21803;-86
2023/10/29 10:26:34;;;;;;;1.50;0.60;;;19.20;72.60;;;;;;2259988;55;21530;-86
2023/10/29 10:29:02;;;;;;;1.12;0.55;;;19.30;72.70;;;;;;2488235;55;21914;-85
2023/10/29 10:31:31;;;;;;;2.35;0.80;;;19.30;72.80;;;;;;2259980;55;20954;-88
2023/10/29 10:34:14;;;;;;;2.78;0.80;;;19.40;72.90;;;;;;2261553;55;21070;-85
2023/10/29 10:36:43;;;;;;;2.25;1.02;;;19.40;71.70;;;;;;2259360;55;20959;-88
2023/10/29 10:39:11;;;;;;;2.20;1.08;;;19.40;72.80;;;;;;2258228;55;21084;-87
2023/10/29 10:41:45;;;;;;;4.07;1.10;;;19.50;73.00;;;;;;2486995;55;20966;-87
2023/10/29 10:44:24;;;;;;;2.87;1.25;;;19.50;72.40;;;;;;2258154;55;20954;-87
2023/10/29 10:46:58;;;;;;;2.87;1.17;;;19.50;72.90;;;;;;2488015;54;20950;-88
2023/10/29 10:49:24;;;;;;;2.35;0.95;;;19.60;72.50;;;;;;2486861;55;21066;-87
2023/10/29 10:51:55;;;;;;;2.75;1.00;;;19.60;72.70;;;;;;2488775;54;20954;-86
2023/10/29 10:54:24;;;;;;;1.85;0.70;;;19.70;72.50;;;;;;2259364;55;21010;-84
2023/10/29 10:56:52;;;;;;;1.50;0.70;;;19.70;72.30;;;;;;2487448;55;20962;-87
2023/10/29 10:59:19;;;;;;;2.65;0.60;;;19.80;72.60;;;;;;2258819;55;21033;-85
2023/10/29 11:01:46;;;;;;;2.60;0.68;;;19.80;72.40;;;;;;2258478;55;20962;-85
2023/10/29 11:04:12;;;;;;;1.25;0.50;;;19.90;72.40;;;;;;2486985;55;20962;-85
2023/10/29 11:06:39;;;;;;;1.37;0.62;;;19.90;72.40;;;;;;2486183;54;20979;-85
2023/10/29 11:09:06;;;;;;;1.48;0.50;;;19.90;72.30;;;;;;2488418;54;20986;-85
2023/10/29 11:11:35;;;;;;;1.23;0.50;;;20.00;72.30;;;;;;2487357;55;20919;-86
2023/10/29 11:14:14;;;;;;;1.65;0.40;;;20.00;72.20;;;;;;2489081;55;21002;-85
2023/10/29 11:17:00;;;;;;;0.95;0.45;;;20.10;71.40;;;;;;2487034;54;20936;-85
2023/10/29 11:19:44;;;;;;;3.10;0.65;;;20.20;71.60;;;;;;2486825;55;21034;-85
2023/10/29 11:22:20;;;;;;;6.10;0.68;;;20.30;71.20;;;;;;2487951;55;20995;-85
2023/10/29 11:25:26;;;;;;;1.08;0.50;;;20.30;72.20;;;;;;2488081;55;21015;-87
2023/10/29 11:27:53;;;;;;;1.70;0.50;;;20.40;71.00;;;;;;2483114;55;21003;-85
2023/10/29 11:30:23;;;;;;;2.00;0.50;;;20.50;72.90;;;;;;2487157;55;21533;-86
2023/10/29 11:33:35;;;;;;;1.60;0.55;;;20.60;72.80;;;;;;2258137;55;20974;-85
2023/10/29 11:36:35;;;;;;;1.65;0.60;;;20.60;70.00;;;;;;2488114;54;20946;-85
2023/10/29 11:42:33;;;;;;;1.48;0.55;;;20.70;70.70;;;;;;2488530;55;20958;-87
2023/10/29 11:45:34;;;;;;;0.90;0.37;;;20.90;70.50;;;;;;2261509;55;20988;-86
2023/10/29 11:48:16;;;;;;;1.10;0.50;;;20.90;70.10;;;;;;2486670;55;20997;-86
2023/10/29 11:51:25;;;;;;;2.72;0.37;;;21.00;71.10;;;;;;2258926;55;21042;-90
2023/10/29 11:53:51;;;;;;;1.12;0.47;;;21.10;70.10;;;;;;2487878;55;21833;-86
2023/10/29 11:56:18;;;;;;;1.83;0.43;;;21.10;72.00;;;;;;2258651;56;21014;-85
2023/10/29 11:58:46;;;;;;;1.75;0.60;;;21.10;72.00;;;;;;2258390;55;20934;-87
2023/10/29 12:01:17;;;;;;;1.98;0.50;;;21.20;72.00;;;;;;2488476;55;20977;-86
2023/10/29 12:03:49;;;;;;;2.47;0.60;;;21.20;71.50;;;;;;2487549;55;21523;-85
2023/10/29 12:06:16;;;;;;;1.48;0.40;;;21.00;71.00;;;;;;2489284;54;21526;-89
2023/10/29 12:08:44;;;;;;;1.08;0.37;;;21.30;71.90;;;;;;2488663;55;21121;-87
2023/10/29 12:11:13;;;;;;;6.82;0.70;;;21.30;71.90;;;;;;2264767;56;20992;-88
2023/10/29 12:13:41;;;;;;;1.50;0.50;;;21.40;71.80;;;;;;2262849;55;20986;-89
2023/10/29 12:16:07;;;;;;;1.40;0.60;;;21.40;71.60;;;;;;2262944;55;20977;-85
2023/10/29 12:18:34;;;;;;;1.15;0.50;;;21.40;71.50;;;;;;2260164;55;20927;-86
2023/10/29 12:21:08;;;;;;;1.20;0.45;;;21.50;71.70;;;;;;2261576;55;20986;-86
2023/10/29 12:23:35;;;;;;;0.73;0.30;;;21.50;70.80;;;;;;2489228;55;20899;-86
2023/10/29 12:26:06;;;;;;;1.10;0.45;;;21.60;71.90;;;;;;2490384;55;21062;-85
2023/10/29 12:28:36;;;;;;;3.42;0.55;;;21.60;71.80;;;;;;2489482;54;21273;-85
2023/10/29 12:31:03;;;;;;;0.95;0.40;;;21.70;71.20;;;;;;2261494;55;21007;-85
2023/10/29 12:33:33;;;;;;;1.23;0.50;;;21.70;71.70;;;;;;2259823;55;21796;-86
2023/10/29 12:36:04;;;;;;;1.33;0.43;;;21.80;71.70;;;;;;2262159;55;21002;-87
2023/10/29 12:38:30;;;;;;;1.00;0.37;;;21.80;71.50;;;;;;2488438;55;20939;-85
2023/10/29 12:41:31;;;;;;;2.25;0.70;;;21.90;71.40;;;;;;2261909;55;21779;-86
2023/10/29 12:43:57;;;;;;;1.35;0.40;;;21.90;68.70;;;;;;2261762;55;21732;-86
2023/10/29 12:46:25;;;;;;;1.70;0.60;;;21.90;71.30;;;;;;2260689;55;20986;-87
2023/10/29 12:49:25;;;;;;;1.75;0.47;;;22.00;71.20;;;;;;2488318;55;21034;-85
2023/10/29 12:51:54;;;;;;;1.98;0.60;;;22.00;68.70;;;;;;2260056;55;20926;-85
2023/10/29 12:54:23;;;;;;;1.48;0.50;;;22.00;71.30;;;;;;2260385;56;20976;-84